createdAt,value
2019-02-17T00:04:57.428Z,42.66
2019-02-17T00:10:05.100Z,49.70
2019-02-17T00:15:12.800Z,40.85
2019-02-17T00:20:20.444Z,41.20
2019-02-17T00:25:28.215Z,40.77
2019-02-17T00:30:35.850Z,41.56
2019-02-17T00:35:43.669Z,42.67
2019-02-17T00:40:51.308Z,50.56
2019-02-17T00:45:59.008Z,49.66
2019-02-17T00:51:06.641Z,43.16
2019-02-17T00:56:14.332Z,43.59
2019-02-17T01:01:24.982Z,43.73
2019-02-17T01:06:22.600Z,42.67
2019-02-17T01:11:30.301Z,44.28
2019-02-17T01:16:37.933Z,43.67
2019-02-17T01:21:45.620Z,43.04
2019-02-17T01:26:53.242Z,43.79
2019-02-17T01:32:01.031Z,45.12
2019-02-17T01:37:08.679Z,45.82
2019-02-17T01:42:16.337Z,44.11
2019-02-17T01:47:23.976Z,43.10
2019-02-17T01:52:31.632Z,43.88
2019-02-17T01:57:39.306Z,44.48
2019-02-17T02:02:46.924Z,44.88
2019-02-17T02:07:54.550Z,45.00
2019-02-17T02:13:02.199Z,45.65
2019-02-17T02:18:09.888Z,44.67
2019-02-17T02:23:17.525Z,43.82
2019-02-17T02:28:25.208Z,43.84
2019-02-17T02:33:32.852Z,43.22
2019-02-17T02:38:40.524Z,43.91
2019-02-17T02:43:48.155Z,42.76
2019-02-17T02:48:55.785Z,43.13
2019-02-17T02:54:03.494Z,42.50
2019-02-17T02:59:11.417Z,42.68
2019-02-17T03:04:19.041Z,43.29
2019-02-17T03:09:26.761Z,41.85
2019-02-17T03:14:34.418Z,42.28
2019-02-17T03:19:42.128Z,52.01
2019-02-17T03:24:49.784Z,50.84
2019-02-17T03:30:04.726Z,50.04
2019-02-17T03:35:04.594Z,50.62
2019-02-17T03:40:12.258Z,51.01
2019-02-17T03:45:19.924Z,42.03
2019-02-17T03:50:27.550Z,41.15
2019-02-17T03:55:35.208Z,41.60
2019-02-17T04:00:42.863Z,53.01
2019-02-17T04:05:50.550Z,42.00
2019-02-17T04:10:58.604Z,54.18
2019-02-17T04:16:06.412Z,43.40
2019-02-17T04:21:14.065Z,43.00
2019-02-17T04:26:21.732Z,43.44
2019-02-17T04:31:29.388Z,42.31
2019-02-17T04:36:37.093Z,41.00
2019-02-17T04:41:44.802Z,40.28
2019-02-17T04:46:52.505Z,48.97
2019-02-17T04:52:00.935Z,37.78
2019-02-17T04:57:09.437Z,39.34
2019-02-17T05:02:19.039Z,49.74
2019-02-17T05:07:24.288Z,39.81
2019-02-17T05:12:31.921Z,38.99
2019-02-17T05:17:39.549Z,40.08
2019-02-17T05:22:47.183Z,37.72
2019-02-17T05:27:54.845Z,37.86
2019-02-17T05:38:09.835Z,38.22
2019-02-17T05:43:17.459Z,37.41
2019-02-17T05:48:25.176Z,45.71
2019-02-17T05:53:33.009Z,44.95
2019-02-17T05:58:40.650Z,36.19
2019-02-17T06:03:48.268Z,34.95
2019-02-17T06:08:55.973Z,36.03
2019-02-17T06:14:03.635Z,38.87
2019-02-17T06:19:11.274Z,37.37
2019-02-17T06:24:18.988Z,43.87
2019-02-17T06:29:26.589Z,36.69
2019-02-17T06:34:36.241Z,36.66
2019-02-17T06:39:43.873Z,38.90
2019-02-17T06:44:54.732Z,49.14
2019-02-17T06:49:52.355Z,38.08
2019-02-17T06:55:00.010Z,39.28
2019-02-17T07:00:07.688Z,39.99
2019-02-17T07:05:18.538Z,40.41
2019-02-17T07:10:16.129Z,39.64
2019-02-17T07:15:23.840Z,46.48
2019-02-17T07:20:31.476Z,39.23
2019-02-17T07:25:39.181Z,48.18
2019-02-17T07:30:46.921Z,48.38
2019-02-17T07:35:54.634Z,51.53
2019-02-17T07:41:02.291Z,51.61
2019-02-17T07:46:24.975Z,51.98
2019-02-17T07:51:12.752Z,50.69
2019-02-17T07:56:35.408Z,44.03
2019-02-17T08:01:30.827Z,41.10
2019-02-17T08:06:38.363Z,51.75
2019-02-17T08:11:35.090Z,48.24
2019-02-17T08:16:43.015Z,40.44
2019-02-17T08:21:52.490Z,39.80
2019-02-17T08:27:00.116Z,46.73
2019-02-17T08:32:07.728Z,38.98
2019-02-17T08:37:15.389Z,39.38
2019-02-17T08:42:23.212Z,37.95
2019-02-17T08:47:30.874Z,36.82
2019-02-17T08:52:38.486Z,40.17
2019-02-17T08:57:55.714Z,38.50
2019-02-17T09:02:52.742Z,38.79
2019-02-17T09:08:00.452Z,33.11
2019-02-17T09:13:08.103Z,32.34
2019-02-17T09:18:29.345Z,32.03
2019-02-17T09:23:29.060Z,31.37
2019-02-17T09:28:25.821Z,31.12
2019-02-17T09:33:33.436Z,30.69
2019-02-17T09:38:41.137Z,34.41
2019-02-17T09:43:58.490Z,29.95
2019-02-17T09:48:55.810Z,29.33
2019-02-17T09:54:11.158Z,32.52
2019-02-17T09:59:18.271Z,29.33
2019-02-17T10:04:14.993Z,28.81
2019-02-17T10:09:24.615Z,27.59
2019-02-17T10:14:32.251Z,27.36
2019-02-17T10:20:16.061Z,26.05
2019-02-17T10:24:42.721Z,27.89
2019-02-17T10:29:50.400Z,30.26
2019-02-17T10:34:58.029Z,26.57
2019-02-17T10:40:05.671Z,26.18
2019-02-17T10:45:13.279Z,28.86
2019-02-17T10:50:20.974Z,28.62
2019-02-17T10:55:28.619Z,26.02
2019-02-17T11:00:36.254Z,27.99
2019-02-17T11:05:43.937Z,25.25
2019-02-17T11:10:51.608Z,27.43
2019-02-17T11:15:59.342Z,25.25
2019-02-17T11:21:06.961Z,24.65
2019-02-17T11:26:14.617Z,24.18
2019-02-17T11:31:22.244Z,22.69
2019-02-17T11:36:29.870Z,22.76
2019-02-17T11:41:37.499Z,22.68
2019-02-17T11:46:45.216Z,22.40
2019-02-17T11:51:52.854Z,22.33
2019-02-17T11:57:00.538Z,21.23
2019-02-17T12:02:08.161Z,21.16
2019-02-17T12:07:15.861Z,19.17
2019-02-17T12:12:23.504Z,19.08
2019-02-17T12:17:31.625Z,17.88
2019-02-17T12:22:39.265Z,17.58
2019-02-17T12:27:46.937Z,18.67
2019-02-17T12:32:54.570Z,14.04
2019-02-17T12:38:02.249Z,16.94
2019-02-17T12:43:09.870Z,17.70
2019-02-17T12:48:17.560Z,17.02
2019-02-17T12:53:25.180Z,16.99
2019-02-17T12:58:32.869Z,16.92
2019-02-17T13:03:40.565Z,18.88
2019-02-17T13:08:48.248Z,13.88
2019-02-17T13:13:55.893Z,17.14
2019-02-17T13:19:03.537Z,16.21
2019-02-17T13:24:11.165Z,17.47
2019-02-17T13:29:18.821Z,12.49
2019-02-17T13:34:26.497Z,14.73
2019-02-17T13:39:34.143Z,14.76
2019-02-17T13:44:41.780Z,17.68
2019-02-17T13:49:50.337Z,15.48
2019-02-17T13:54:58.005Z,15.50
2019-02-17T14:00:05.656Z,11.54
2019-02-17T14:05:13.285Z,12.41
2019-02-17T14:10:20.948Z,14.34
2019-02-17T14:15:28.573Z,15.10
2019-02-17T14:20:36.207Z,15.09
2019-02-17T14:25:43.820Z,11.14
2019-02-17T14:30:51.457Z,13.79
2019-02-17T14:35:59.184Z,13.76
2019-02-17T14:41:06.808Z,14.00
2019-02-17T14:46:14.568Z,13.74
2019-02-17T14:51:22.200Z,14.89
2019-02-17T14:56:29.901Z,11.23
2019-02-17T15:01:37.548Z,12.03
2019-02-17T15:06:45.228Z,13.42
2019-02-17T15:11:52.860Z,13.81
2019-02-17T15:17:00.578Z,13.28
2019-02-17T15:22:08.226Z,13.34
2019-02-17T15:27:16.138Z,13.72
2019-02-17T15:32:24.678Z,13.43
2019-02-17T15:37:32.324Z,12.43
2019-02-17T15:42:39.948Z,11.54
2019-02-17T15:47:47.640Z,12.44
2019-02-17T15:52:55.296Z,11.11
2019-02-17T15:58:02.979Z,11.43
2019-02-17T16:03:10.613Z,10.53
2019-02-17T16:08:18.240Z,10.72
2019-02-17T16:13:25.861Z,9.20
2019-02-17T16:18:33.524Z,9.12
2019-02-17T16:23:41.163Z,8.91
2019-02-17T16:28:48.813Z,9.29
2019-02-17T16:33:56.458Z,8.17
2019-02-17T16:39:04.117Z,8.90
2019-02-17T16:44:11.776Z,8.43
2019-02-17T16:49:19.412Z,8.58
2019-02-17T16:54:27.078Z,9.25
2019-02-17T16:59:34.694Z,8.88
2019-02-17T17:04:48.415Z,8.80
2019-02-17T17:09:49.581Z,8.72
2019-02-17T17:14:57.446Z,8.77
2019-02-17T17:20:05.069Z,9.06
2019-02-17T17:25:12.724Z,8.97
2019-02-17T17:30:20.348Z,9.79
2019-02-17T17:35:27.993Z,10.01
2019-02-17T17:40:36.148Z,9.82
2019-02-17T17:45:42.780Z,10.44
2019-02-17T17:50:50.466Z,11.08
2019-02-17T17:55:58.398Z,10.50
2019-02-17T18:01:07.791Z,10.34
2019-02-17T18:06:13.274Z,15.08
2019-02-17T18:11:20.985Z,21.52
2019-02-17T18:16:28.644Z,15.22
2019-02-17T18:21:36.375Z,12.71
2019-02-17T18:26:43.996Z,10.34
2019-02-17T18:31:51.665Z,10.32
2019-02-17T18:36:59.285Z,12.61
2019-02-17T18:42:07.015Z,11.53
2019-02-17T18:47:14.628Z,12.29
2019-02-17T18:52:22.273Z,17.41
2019-02-17T18:57:29.980Z,18.20
2019-02-17T19:02:37.594Z,27.65
2019-02-17T19:07:46.092Z,21.05
2019-02-17T19:12:53.622Z,12.92
2019-02-17T19:18:01.368Z,14.82
2019-02-17T19:23:09.026Z,12.17
2019-02-17T19:28:16.697Z,15.35
2019-02-17T19:33:24.349Z,14.04
2019-02-17T19:38:32.041Z,16.79
2019-02-17T19:43:39.689Z,15.21
2019-02-17T19:48:51.398Z,15.82
2019-02-17T19:53:49.017Z,14.74
2019-02-17T19:58:56.681Z,16.93
2019-02-17T20:04:04.304Z,16.66
2019-02-17T20:09:11.941Z,15.09
2019-02-17T20:14:19.574Z,23.92
2019-02-17T20:19:27.253Z,25.60
2019-02-17T20:24:34.966Z,19.55
2019-02-17T20:29:42.600Z,15.93
2019-02-17T20:34:50.252Z,14.85
2019-02-17T20:39:57.952Z,10.30
2019-02-17T20:45:05.590Z,10.75
2019-02-17T20:50:13.286Z,9.96
2019-02-17T20:55:20.929Z,10.41
2019-02-17T21:00:28.563Z,9.95
2019-02-17T21:05:37.463Z,9.90
2019-02-17T21:10:45.162Z,11.29
2019-02-17T21:15:52.784Z,14.20
2019-02-17T21:21:00.457Z,13.09
2019-02-17T21:26:08.250Z,10.80
2019-02-17T21:31:15.912Z,12.56
2019-02-17T21:36:23.668Z,11.19
2019-02-17T21:41:31.279Z,11.59
2019-02-17T21:46:38.937Z,11.30
2019-02-17T21:51:46.586Z,10.74
2019-02-17T21:56:54.214Z,11.70
2019-02-17T22:02:01.841Z,11.48
2019-02-17T22:07:09.457Z,10.71
2019-02-17T22:12:17.086Z,10.91
2019-02-17T22:17:24.761Z,11.61
2019-02-17T22:22:36.366Z,11.80
2019-02-17T22:27:34.006Z,11.26
2019-02-17T22:32:41.642Z,10.50
2019-02-17T22:37:49.457Z,10.40
2019-02-17T22:42:57.148Z,10.68
2019-02-17T22:48:04.883Z,10.41
2019-02-17T22:53:12.573Z,9.81
2019-02-17T22:58:20.428Z,10.72
2019-02-17T23:03:28.388Z,10.20
2019-02-17T23:08:36.344Z,9.80
2019-02-17T23:13:43.966Z,9.71
2019-02-17T23:18:51.676Z,9.51
2019-02-17T23:23:59.298Z,9.67
2019-02-17T23:29:07.410Z,10.02
2019-02-17T23:34:15.025Z,9.40
2019-02-17T23:39:22.681Z,9.63
2019-02-17T23:44:30.398Z,9.99
2019-02-17T23:49:38.040Z,9.83
2019-02-17T23:54:45.704Z,9.77
2019-02-17T23:59:53.429Z,9.12
